createdAt,value
2019-03-25T00:01:26.682Z,95464.75
2019-03-25T00:03:56.577Z,95472.86
2019-03-25T00:06:26.582Z,95464.55
2019-03-25T00:09:04.767Z,95467.93
2019-03-25T00:11:28.150Z,95467.61
2019-03-25T00:13:58.112Z,95464.74
2019-03-25T00:16:28.094Z,95460.23
2019-03-25T00:18:57.993Z,95454.75
2019-03-25T00:21:27.892Z,95454.91
2019-03-25T00:23:57.791Z,95448.45
2019-03-25T00:26:27.727Z,95445.35
2019-03-25T00:28:57.673Z,95443.02
2019-03-25T00:31:27.608Z,95440.23
2019-03-25T00:33:57.690Z,95440.51
2019-03-25T00:36:27.576Z,95440.51
2019-03-25T00:38:57.444Z,95436.98
2019-03-25T00:41:27.451Z,95436.23
2019-03-25T00:43:57.395Z,95438.31
2019-03-25T00:46:27.335Z,95436.23
2019-03-25T00:48:57.224Z,95423.63
2019-03-25T00:51:27.092Z,95430.88
2019-03-25T00:53:57.088Z,95426.48
2019-03-25T00:56:26.999Z,95423.58
2019-03-25T00:58:56.915Z,95421.27
2019-03-25T01:01:26.828Z,95423.31
2019-03-25T01:03:56.730Z,95424.66
2019-03-25T01:06:26.661Z,95420.41
2019-03-25T01:08:56.609Z,95426.73
2019-03-25T01:11:26.592Z,95401.37
2019-03-25T01:13:58.050Z,95426.66
2019-03-25T01:16:28.067Z,95426.08
2019-03-25T01:18:57.977Z,95415.34
2019-03-25T01:21:27.882Z,95427.23
2019-03-25T01:23:57.783Z,95422.95
2019-03-25T01:26:27.710Z,95426.05
2019-03-25T01:28:57.637Z,95415.08
2019-03-25T01:31:27.540Z,95415.49
2019-03-25T01:33:57.454Z,95413.14
2019-03-25T01:36:27.350Z,95424.45
2019-03-25T01:38:57.230Z,95415.23
2019-03-25T01:41:27.199Z,95410.50
2019-03-25T01:43:57.132Z,95414.13
2019-03-25T01:46:27.054Z,95415.07
2019-03-25T01:48:57.013Z,95415.31
2019-03-25T01:51:26.995Z,95413.95
2019-03-25T01:53:56.914Z,95413.69
2019-03-25T01:56:26.838Z,95419.08
2019-03-25T01:58:56.757Z,95407.98
2019-03-25T02:01:26.669Z,95399.78
2019-03-25T02:03:56.714Z,95391.84
2019-03-25T02:06:26.634Z,95384.76
2019-03-25T02:08:56.527Z,95384.76
2019-03-25T02:11:26.449Z,95385.16
2019-03-25T02:13:56.339Z,95383.85
2019-03-25T02:16:26.255Z,95383.85
2019-03-25T02:18:56.186Z,95371.06
2019-03-25T02:21:26.169Z,95372.98
2019-03-25T02:23:56.062Z,95369.91
2019-03-25T02:26:26.002Z,95369.91
2019-03-25T02:28:55.901Z,95361.19
2019-03-25T02:31:25.837Z,95366.22
2019-03-25T02:33:55.716Z,95354.67
2019-03-25T02:36:25.675Z,95354.67
2019-03-25T02:38:55.565Z,95174.23
2019-03-25T02:41:25.504Z,95174.23
2019-03-25T02:43:55.539Z,95361.52
2019-03-25T02:46:25.472Z,95357.34
2019-03-25T02:48:55.397Z,95355.48
2019-03-25T02:51:25.340Z,95340.86
2019-03-25T02:53:55.336Z,95340.86
2019-03-25T02:56:25.296Z,95333.66
2019-03-25T02:58:55.242Z,95345.33
2019-03-25T03:01:25.143Z,95350.06
2019-03-25T03:03:55.036Z,95350.06
2019-03-25T03:06:24.927Z,95349.41
2019-03-25T03:08:54.856Z,95343.89
2019-03-25T03:11:24.773Z,95333.59
2019-03-25T03:13:54.711Z,95335.48
2019-03-25T03:16:24.618Z,95338.28
2019-03-25T03:18:54.527Z,95340.10
2019-03-25T03:21:24.428Z,95338.63
2019-03-25T03:23:54.351Z,95337.73
2019-03-25T03:26:24.256Z,95341.93
2019-03-25T03:28:54.180Z,95329.86
2019-03-25T03:31:24.062Z,95329.86
2019-03-25T03:33:54.024Z,95330.21
2019-03-25T03:36:23.977Z,95329.33
2019-03-25T03:38:53.883Z,95329.33
2019-03-25T03:41:23.877Z,95336.80
2019-03-25T03:43:53.773Z,95331.57
2019-03-25T03:46:23.711Z,95331.57
2019-03-25T03:48:53.656Z,95324.41
2019-03-25T03:51:23.776Z,95319.50
2019-03-25T03:53:53.689Z,95323.81
2019-03-25T03:56:24.692Z,95325.56
2019-03-25T03:58:54.678Z,95322.96
2019-03-25T04:01:24.599Z,95326.78
2019-03-25T04:03:54.476Z,95321.22
2019-03-25T04:06:24.348Z,95319.49
2019-03-25T04:08:54.239Z,95322.80
2019-03-25T04:11:24.132Z,95323.11
2019-03-25T04:13:54.094Z,95314.77
2019-03-25T04:16:24.039Z,95316.77
2019-03-25T04:18:54.028Z,95309.11
2019-03-25T04:21:23.971Z,95317.80
2019-03-25T04:23:53.857Z,95308.86
2019-03-25T04:26:29.185Z,95317.20
2019-03-25T04:28:55.524Z,95310.19
2019-03-25T04:31:25.435Z,95317.41
2019-03-25T04:33:55.347Z,95311.61
2019-03-25T04:36:25.234Z,95318.59
2019-03-25T04:38:55.154Z,95309.30
2019-03-25T04:41:25.076Z,95309.23
2019-03-25T04:43:55.026Z,95305.65
2019-03-25T04:46:24.918Z,95305.65
2019-03-25T04:48:54.829Z,95301.98
2019-03-25T04:51:24.727Z,95296.50
2019-03-25T04:53:54.672Z,95298.76
2019-03-25T04:56:24.597Z,95302.74
2019-03-25T04:58:54.488Z,95301.88
2019-03-25T05:01:24.374Z,95305.02
2019-03-25T05:03:54.299Z,95301.47
2019-03-25T05:06:24.200Z,95307.04
2019-03-25T05:08:54.085Z,95300.39
2019-03-25T05:11:30.604Z,95297.64
2019-03-25T05:13:55.694Z,95299.05
2019-03-25T05:16:25.685Z,95300.91
2019-03-25T05:18:55.593Z,95297.96
2019-03-25T05:21:25.503Z,95298.59
2019-03-25T05:23:55.737Z,95292.03
2019-03-25T05:26:25.638Z,95296.31
2019-03-25T05:28:55.675Z,95299.80
2019-03-25T05:31:25.569Z,95292.02
2019-03-25T05:33:55.466Z,95294.17
2019-03-25T05:36:25.390Z,95286.55
2019-03-25T05:38:55.331Z,95284.82
2019-03-25T05:41:25.290Z,95284.56
2019-03-25T05:43:55.235Z,95284.30
2019-03-25T05:46:25.128Z,95275.67
2019-03-25T05:48:55.199Z,95275.59
2019-03-25T05:51:25.234Z,95266.88
2019-03-25T05:53:55.200Z,95271.62
2019-03-25T05:56:25.110Z,95274.02
2019-03-25T05:58:55.018Z,95264.02
2019-03-25T06:01:25.607Z,95265.03
2019-03-25T06:03:55.502Z,95269.42
2019-03-25T06:06:25.390Z,95264.85
2019-03-25T06:08:55.711Z,95257.41
2019-03-25T06:11:25.733Z,95259.87
2019-03-25T06:13:55.732Z,95258.39
2019-03-25T06:16:25.637Z,95258.80
2019-03-25T06:18:55.582Z,95259.29
2019-03-25T06:21:25.579Z,95253.47
2019-03-25T06:23:55.491Z,95251.53
2019-03-25T06:26:25.414Z,95260.06
2019-03-25T06:28:55.977Z,95108.10
2019-03-25T06:31:25.951Z,95251.77
2019-03-25T06:33:55.852Z,95247.81
2019-03-25T06:36:25.821Z,95252.74
2019-03-25T06:38:56.124Z,95244.72
2019-03-25T06:41:26.046Z,95238.04
2019-03-25T06:43:56.338Z,95239.14
2019-03-25T06:46:26.257Z,95235.84
2019-03-25T06:48:56.238Z,95225.02
2019-03-25T06:51:26.205Z,95086.70
2019-03-25T06:53:56.341Z,95229.27
2019-03-25T06:56:26.254Z,95233.70
2019-03-25T06:58:56.396Z,95237.97
2019-03-25T07:01:26.303Z,95227.33
2019-03-25T07:03:56.216Z,95235.02
2019-03-25T07:06:26.193Z,95242.38
2019-03-25T07:08:56.167Z,95230.20
2019-03-25T07:11:26.074Z,95234.68
2019-03-25T07:13:56.467Z,95234.41
2019-03-25T07:16:26.384Z,95229.58
2019-03-25T07:18:56.392Z,95234.84
2019-03-25T07:21:27.895Z,95227.19
2019-03-25T07:23:58.260Z,95221.66
2019-03-25T07:26:28.181Z,95226.23
2019-03-25T07:28:58.603Z,95226.00
2019-03-25T07:31:28.524Z,95217.55
2019-03-25T07:33:58.434Z,95221.81
2019-03-25T07:36:28.383Z,95218.23
2019-03-25T07:39:00.202Z,95214.87
2019-03-25T07:41:30.290Z,95212.92
2019-03-25T07:44:00.250Z,95210.47
2019-03-25T07:46:30.152Z,95207.19
2019-03-25T07:49:00.136Z,95203.62
2019-03-25T07:51:30.228Z,95200.19
2019-03-25T07:54:00.269Z,95197.55
2019-03-25T07:56:30.246Z,95196.15
2019-03-25T07:59:00.298Z,95187.53
2019-03-25T08:01:30.295Z,95180.52
2019-03-25T08:04:00.179Z,95183.11
2019-03-25T08:06:30.099Z,95175.34
2019-03-25T08:09:03.942Z,95181.72
2019-03-25T08:11:31.715Z,95174.77
2019-03-25T08:14:01.625Z,95170.63
2019-03-25T08:16:31.543Z,95167.45
2019-03-25T08:19:01.448Z,95156.67
2019-03-25T08:21:31.515Z,95156.02
2019-03-25T08:24:01.486Z,95152.39
2019-03-25T08:26:31.384Z,95142.68
2019-03-25T08:29:01.348Z,95144.84
2019-03-25T08:31:31.269Z,95144.93
2019-03-25T08:34:01.185Z,95137.75
2019-03-25T08:36:31.070Z,95132.95
2019-03-25T08:39:01.190Z,95125.13
2019-03-25T08:41:31.113Z,95124.58
2019-03-25T08:44:01.082Z,95119.27
2019-03-25T08:46:30.996Z,95111.38
2019-03-25T08:49:00.976Z,95105.17
2019-03-25T08:51:30.854Z,95105.38
2019-03-25T08:54:00.824Z,95103.81
2019-03-25T08:56:30.730Z,95092.89
2019-03-25T08:59:00.619Z,95099.55
2019-03-25T09:01:30.533Z,95086.45
2019-03-25T09:04:00.495Z,95085.44
2019-03-25T09:06:30.400Z,95078.83
2019-03-25T09:09:00.673Z,95072.95
2019-03-25T09:11:30.660Z,95072.77
2019-03-25T09:14:00.728Z,95064.92
2019-03-25T09:16:30.695Z,95051.94
2019-03-25T09:19:00.623Z,95054.22
2019-03-25T09:21:30.942Z,95048.31
2019-03-25T09:24:00.889Z,95046.59
2019-03-25T09:26:30.833Z,95037.66
2019-03-25T09:29:00.806Z,95037.11
2019-03-25T09:31:36.781Z,95030.80
2019-03-25T09:34:02.536Z,95029.52
2019-03-25T09:36:32.495Z,95021.28
2019-03-25T09:39:03.165Z,95019.30
2019-03-25T09:41:33.113Z,95011.57
2019-03-25T09:44:04.236Z,95000.56
2019-03-25T09:50:39.871Z,94995.34
2019-03-25T09:53:09.923Z,94986.74
2019-03-25T09:55:39.809Z,94978.44
2019-03-25T09:58:09.721Z,94979.41
2019-03-25T10:00:40.275Z,94967.56
2019-03-25T10:03:10.271Z,94959.17
2019-03-25T10:05:40.250Z,94953.48
2019-03-25T10:08:10.167Z,94953.05
2019-03-25T10:10:40.082Z,94944.05
2019-03-25T10:13:09.975Z,94944.12
2019-03-25T10:15:39.891Z,94937.01
2019-03-25T10:18:09.821Z,94936.02
2019-03-25T10:20:39.705Z,94926.21
2019-03-25T10:23:09.660Z,94924.03
2019-03-25T10:25:39.534Z,94916.05
2019-03-25T10:28:09.672Z,94908.26
2019-03-25T10:30:39.855Z,94900.02
2019-03-25T10:33:09.797Z,94899.50
2019-03-25T10:35:39.729Z,94898.77
2019-03-25T10:38:19.155Z,94893.53
2019-03-25T10:40:41.399Z,94894.04
2019-03-25T10:43:11.329Z,94883.78
2019-03-25T10:45:41.244Z,94879.80
2019-03-25T10:48:11.266Z,94875.56
2019-03-25T10:50:41.197Z,94871.73
2019-03-25T10:53:11.069Z,94862.77
2019-03-25T10:55:40.965Z,94865.86
2019-03-25T10:58:10.846Z,94857.59
2019-03-25T11:00:40.983Z,94849.74
2019-03-25T11:03:10.843Z,94850.47
2019-03-25T11:05:40.799Z,94840.63
2019-03-25T11:08:10.697Z,94835.27
2019-03-25T11:10:40.647Z,94828.30
2019-03-25T11:13:10.548Z,94825.31
2019-03-25T11:15:40.655Z,94816.88
2019-03-25T11:18:10.646Z,94816.89
2019-03-25T11:20:40.545Z,94811.37
2019-03-25T11:23:10.598Z,94797.70
2019-03-25T11:25:40.505Z,94792.06
2019-03-25T11:28:12.237Z,94782.88
2019-03-25T11:31:01.204Z,94780.09
2019-03-25T11:33:31.120Z,94775.43
2019-03-25T11:36:02.897Z,94768.27
2019-03-25T11:38:33.129Z,94758.78
2019-03-25T11:41:03.155Z,94758.74
2019-03-25T11:43:33.076Z,94750.49
2019-03-25T11:46:02.975Z,94738.17
2019-03-25T11:48:32.897Z,94738.75
2019-03-25T11:51:02.802Z,94725.91
2019-03-25T11:53:32.734Z,94719.11
2019-03-25T11:56:02.670Z,94711.92
2019-03-25T11:58:32.568Z,94715.30
2019-03-25T12:01:02.487Z,94706.03
2019-03-25T12:03:32.410Z,94698.16
2019-03-25T12:06:02.348Z,94692.83
2019-03-25T12:08:33.194Z,94681.59
2019-03-25T12:11:03.195Z,94684.28
2019-03-25T12:13:33.261Z,94676.27
2019-03-25T12:16:03.152Z,94676.48
2019-03-25T12:18:33.511Z,94667.36
2019-03-25T12:21:03.447Z,94669.78
2019-03-25T12:23:33.408Z,94662.12
2019-03-25T12:26:03.329Z,94650.93
2019-03-25T12:28:33.260Z,94653.50
2019-03-25T12:31:03.215Z,94653.00
2019-03-25T12:33:33.231Z,94650.81
2019-03-25T12:36:03.365Z,94641.77
2019-03-25T12:38:33.388Z,94636.17
2019-03-25T12:41:03.620Z,94631.97
2019-03-25T12:43:33.569Z,94617.67
2019-03-25T12:46:03.493Z,94617.06
2019-03-25T12:48:33.437Z,94620.70
2019-03-25T12:51:03.368Z,94616.56
2019-03-25T12:53:33.300Z,94604.56
2019-03-25T12:56:03.252Z,94607.38
2019-03-25T12:58:33.274Z,94605.53
2019-03-25T13:01:03.269Z,94614.86
2019-03-25T13:03:33.209Z,94605.94
2019-03-25T13:06:03.193Z,94601.81
2019-03-25T13:08:33.664Z,94599.72
2019-03-25T13:11:03.683Z,94596.27
2019-03-25T13:13:33.623Z,94591.63
2019-03-25T13:16:04.009Z,94593.98
2019-03-25T13:18:33.882Z,94584.41
2019-03-25T13:21:03.960Z,94581.47
2019-03-25T13:23:33.873Z,94581.39
2019-03-25T13:26:03.895Z,94580.28
2019-03-25T13:28:33.852Z,94573.59
2019-03-25T13:31:03.888Z,94566.37
2019-03-25T13:33:33.871Z,94567.23
2019-03-25T13:36:04.289Z,94572.38
2019-03-25T13:38:34.201Z,94562.06
2019-03-25T13:41:04.210Z,94561.06
2019-03-25T13:43:34.163Z,94557.92
2019-03-25T13:46:05.586Z,94553.55
2019-03-25T13:48:35.700Z,94555.86
2019-03-25T13:51:05.723Z,94552.33
2019-03-25T13:53:35.677Z,94549.48
2019-03-25T13:56:05.719Z,94546.23
2019-03-25T13:58:35.685Z,94549.09
2019-03-25T14:01:05.786Z,94537.06
2019-03-25T14:03:36.163Z,94526.80
2019-03-25T14:06:06.209Z,94527.55
2019-03-25T14:08:36.137Z,94522.78
2019-03-25T14:11:06.087Z,94521.06
2019-03-25T14:13:36.109Z,94514.86
2019-03-25T14:16:06.029Z,94513.33
2019-03-25T14:18:35.936Z,94514.25
2019-03-25T14:21:05.905Z,94506.55
2019-03-25T14:23:35.892Z,94504.29
2019-03-25T14:26:05.852Z,94507.04
2019-03-25T14:28:37.019Z,94504.23
2019-03-25T14:31:06.964Z,94500.38
2019-03-25T14:33:37.014Z,94496.84
2019-03-25T14:36:06.945Z,94504.11
2019-03-25T14:38:36.877Z,94497.63
2019-03-25T14:41:06.833Z,94500.33
2019-03-25T14:43:36.805Z,94503.39
2019-03-25T14:46:06.733Z,94489.83
2019-03-25T14:48:36.661Z,94494.64
2019-03-25T14:51:06.650Z,94491.77
2019-03-25T14:53:44.801Z,94486.11
2019-03-25T14:56:08.932Z,94485.86
2019-03-25T14:58:38.893Z,94497.89
2019-03-25T15:01:08.874Z,94495.14
2019-03-25T15:03:38.869Z,94500.20
2019-03-25T15:06:08.821Z,94488.68
2019-03-25T15:08:38.729Z,94494.36
2019-03-25T15:11:08.671Z,94482.55
2019-03-25T15:13:38.680Z,94491.78
2019-03-25T15:16:08.580Z,94490.48
2019-03-25T15:18:38.566Z,94491.31
2019-03-25T15:21:08.554Z,94490.86
2019-03-25T15:23:38.573Z,94496.78
2019-03-25T15:26:08.898Z,94490.34
2019-03-25T15:28:39.792Z,94488.18
2019-03-25T15:31:09.777Z,94493.08
2019-03-25T15:33:39.803Z,94491.78
2019-03-25T15:36:09.755Z,94486.70
2019-03-25T15:38:39.766Z,94487.72
2019-03-25T15:41:09.706Z,94484.97
2019-03-25T15:43:39.735Z,94483.73
2019-03-25T15:46:09.661Z,94487.89
2019-03-25T15:48:39.644Z,94491.86
2019-03-25T15:51:09.654Z,94487.74
2019-03-25T15:53:39.927Z,94477.80
2019-03-25T15:56:09.962Z,94480.18
2019-03-25T15:58:39.944Z,94478.62
2019-03-25T16:01:10.514Z,94472.50
2019-03-25T16:03:40.564Z,94474.10
2019-03-25T16:06:10.594Z,94029.96
2019-03-25T16:08:41.951Z,94473.75
2019-03-25T16:11:12.018Z,94468.46
2019-03-25T16:13:42.179Z,94461.88
2019-03-25T16:16:14.286Z,94476.08
2019-03-25T16:18:47.107Z,94469.34
2019-03-25T16:21:17.242Z,94475.94
2019-03-25T16:23:47.226Z,94468.80
2019-03-25T16:26:18.349Z,94472.03
2019-03-25T16:28:49.047Z,94476.30
2019-03-25T16:31:19.140Z,94475.64
2019-03-25T16:33:49.152Z,94470.88
2019-03-25T16:36:20.104Z,94472.95
2019-03-25T16:38:50.157Z,94476.19
2019-03-25T16:41:20.092Z,94478.45
2019-03-25T16:43:50.412Z,94478.17
2019-03-25T16:46:20.738Z,94485.64
2019-03-25T16:48:50.662Z,94487.59
2019-03-25T16:51:20.657Z,94482.39
2019-03-25T16:53:50.624Z,94487.01
2019-03-25T16:56:20.613Z,94481.73
2019-03-25T16:58:50.548Z,94485.13
2019-03-25T17:01:20.791Z,94486.14
2019-03-25T17:03:52.197Z,94478.16
2019-03-25T17:06:22.147Z,94483.39
2019-03-25T17:08:52.246Z,94476.92
2019-03-25T17:11:22.250Z,94477.99
2019-03-25T17:13:52.183Z,94483.48
2019-03-25T17:16:22.208Z,94259.11
2019-03-25T17:18:52.252Z,94500.23
2019-03-25T17:21:22.306Z,94371.99
2019-03-25T17:23:52.556Z,94499.44
2019-03-25T17:26:22.559Z,94497.34
2019-03-25T17:28:52.707Z,94503.20
2019-03-25T17:31:23.632Z,94519.13
2019-03-25T17:33:53.968Z,94515.87
2019-03-25T17:36:24.347Z,94516.08
2019-03-25T17:38:54.410Z,94525.09
2019-03-25T17:41:24.557Z,94523.14
2019-03-25T17:43:54.658Z,94527.89
2019-03-25T17:46:24.728Z,94528.32
2019-03-25T17:48:54.760Z,94539.29
2019-03-25T17:51:24.871Z,94537.73
2019-03-25T17:54:01.064Z,94537.73
2019-03-25T17:56:31.192Z,94537.74
2019-03-25T17:59:01.504Z,94539.34
2019-03-25T18:01:39.056Z,94540.34
2019-03-25T18:04:09.046Z,94540.71
2019-03-25T18:06:40.194Z,94540.15
2019-03-25T18:09:10.992Z,94545.02
2019-03-25T18:11:41.147Z,94543.07
2019-03-25T18:14:11.186Z,94535.67
2019-03-25T18:16:42.109Z,94532.97
2019-03-25T18:19:12.917Z,94543.66
2019-03-25T18:21:43.806Z,94538.78
2019-03-25T18:24:13.771Z,94541.14
2019-03-25T18:26:43.744Z,94545.78
2019-03-25T18:29:14.164Z,94543.47
2019-03-25T18:31:44.593Z,94549.66
2019-03-25T18:34:14.560Z,94548.84
2019-03-25T18:36:47.997Z,94543.61
2019-03-25T18:39:18.018Z,94550.95
2019-03-25T18:41:48.081Z,94547.44
2019-03-25T18:44:18.024Z,94550.14
2019-03-25T18:46:48.905Z,94548.34
2019-03-25T18:49:19.134Z,94558.03
2019-03-25T18:51:49.226Z,94553.86
2019-03-25T18:54:19.207Z,94550.50
2019-03-25T18:56:51.291Z,94548.14
2019-03-25T18:59:23.101Z,94545.93
2019-03-25T19:01:54.787Z,94545.06
2019-03-25T19:04:27.285Z,94554.17
2019-03-25T19:06:58.466Z,94563.25
2019-03-25T19:09:28.520Z,94552.11
2019-03-25T19:11:58.541Z,94550.48
2019-03-25T19:14:29.536Z,94545.80
2019-03-25T19:16:59.646Z,94554.91
2019-03-25T19:19:32.725Z,94555.25
2019-03-25T19:22:05.206Z,94553.44
2019-03-25T19:24:34.653Z,94551.86
2019-03-25T19:27:05.551Z,94552.07
2019-03-25T19:29:35.670Z,94560.39
2019-03-25T19:32:06.937Z,94560.34
2019-03-25T19:34:37.293Z,94563.61
2019-03-25T19:37:07.360Z,94565.87
2019-03-25T19:39:37.559Z,94566.39
2019-03-25T19:42:09.490Z,94560.90
2019-03-25T19:44:39.781Z,94564.40
2019-03-25T19:47:09.811Z,94566.30
2019-03-25T19:49:39.780Z,94569.35
2019-03-25T19:52:09.745Z,94571.02
2019-03-25T19:54:39.689Z,94571.25
2019-03-25T19:57:09.713Z,94580.75
2019-03-25T19:59:40.188Z,94576.92
2019-03-25T20:02:18.825Z,94570.25
2019-03-25T20:04:41.955Z,94572.53
2019-03-25T20:07:12.022Z,94574.23
2019-03-25T20:09:42.587Z,94567.86
2019-03-25T20:12:12.749Z,94578.52
2019-03-25T20:14:42.882Z,94566.52
2019-03-25T20:17:12.936Z,94571.98
2019-03-25T20:19:43.261Z,94574.14
2019-03-25T20:22:13.210Z,94571.26
2019-03-25T20:24:43.165Z,94578.76
2019-03-25T20:27:13.079Z,94575.04
2019-03-25T20:29:43.105Z,94573.31
2019-03-25T20:32:13.141Z,94580.27
2019-03-25T20:34:43.051Z,94580.77
2019-03-25T20:37:13.107Z,94568.90
2019-03-25T20:39:43.237Z,94576.17
2019-03-25T20:42:13.198Z,94575.16
2019-03-25T20:44:43.165Z,94582.13
2019-03-25T20:47:13.246Z,94572.11
2019-03-25T20:49:43.267Z,94570.94
2019-03-25T20:52:13.346Z,94572.45
2019-03-25T20:54:43.464Z,94573.52
2019-03-25T20:57:13.511Z,94577.33
2019-03-25T20:59:43.678Z,94581.73
2019-03-25T21:02:13.904Z,94579.08
2019-03-25T21:04:44.409Z,94572.42
2019-03-25T21:07:15.350Z,94578.75
2019-03-25T21:09:45.590Z,94578.55
2019-03-25T21:12:15.713Z,94583.97
2019-03-25T21:14:45.753Z,94587.73
2019-03-25T21:17:15.833Z,94586.72
2019-03-25T21:19:45.962Z,94593.86
2019-03-25T21:22:15.930Z,94582.24
2019-03-25T21:24:46.116Z,94590.32
2019-03-25T21:27:16.238Z,94584.84
2019-03-25T21:29:46.349Z,94592.55
2019-03-25T21:32:16.546Z,94581.23
2019-03-25T21:34:49.680Z,94587.09
2019-03-25T21:37:19.852Z,94576.98
2019-03-25T21:39:49.750Z,94575.22
2019-03-25T21:42:19.848Z,94574.80
2019-03-25T21:44:50.076Z,94579.50
2019-03-25T21:47:20.209Z,94570.86
2019-03-25T21:49:50.356Z,94572.17
2019-03-25T21:52:20.417Z,94570.59
2019-03-25T21:54:50.636Z,94569.54
2019-03-25T21:57:20.634Z,94577.76
2019-03-25T21:59:50.707Z,94585.65
2019-03-25T22:02:21.204Z,94584.15
2019-03-25T22:04:51.214Z,94587.39
2019-03-25T22:07:21.267Z,94591.64
2019-03-25T22:09:51.533Z,94591.53
2019-03-25T22:12:21.503Z,94590.41
2019-03-25T22:14:51.507Z,94587.28
2019-03-25T22:17:21.500Z,94587.95
2019-03-25T22:19:51.575Z,94597.70
2019-03-25T22:22:22.713Z,94597.43
2019-03-25T22:24:52.738Z,94595.73
2019-03-25T22:27:22.828Z,94592.50
2019-03-25T22:29:52.786Z,94591.30
2019-03-25T22:32:22.870Z,94591.10
2019-03-25T22:34:52.909Z,94592.63
2019-03-25T22:37:22.854Z,94591.03
2019-03-25T22:39:52.854Z,94600.28
2019-03-25T22:42:22.985Z,94549.94
2019-03-25T22:44:53.023Z,94603.13
2019-03-25T22:47:22.972Z,94593.59
2019-03-25T22:49:53.907Z,94604.87
2019-03-25T22:52:24.382Z,94601.70
2019-03-25T22:54:54.408Z,94605.70
2019-03-25T22:57:24.423Z,94597.28
2019-03-25T22:59:54.450Z,94600.27
2019-03-25T23:02:25.071Z,94608.23
2019-03-25T23:04:56.083Z,94614.33
2019-03-25T23:07:26.247Z,94616.67
2019-03-25T23:09:56.568Z,94625.48
2019-03-25T23:12:26.715Z,94615.45
2019-03-25T23:14:56.748Z,94618.53
2019-03-25T23:17:26.778Z,94622.73
2019-03-25T23:19:56.790Z,94627.33
2019-03-25T23:22:26.852Z,94628.98
2019-03-25T23:24:56.853Z,94626.02
2019-03-25T23:27:26.817Z,94622.10
2019-03-25T23:29:56.812Z,94621.88
2019-03-25T23:32:27.778Z,94624.57
2019-03-25T23:34:57.834Z,94624.02
2019-03-25T23:37:28.293Z,94623.22
2019-03-25T23:39:58.625Z,94619.53
2019-03-25T23:42:28.598Z,94623.91
2019-03-25T23:44:58.601Z,94625.81
2019-03-25T23:47:28.622Z,94623.73
2019-03-25T23:49:58.782Z,94622.16
2019-03-25T23:52:28.715Z,94617.68
2019-03-25T23:54:58.760Z,94630.17
2019-03-25T23:57:28.793Z,94638.39
2019-03-25T23:59:58.735Z,94639.70
